Hovedside
METAR-TAF:

METAR-TAF

Lufthavner :

Jönköping lufthavn

Jönköping, Sverige

breddegrad: 57-46N, lengdegrad: 014-05E, høyde over havet: 226 m

Gjeldene værobservasjon

Denne rapporten ble laget for 16 minutter siden, klokken 04:20 UTC
Vind 9 kt fra Sørøst
Temperatur 0°C
Luftfuktighet 93%
Trykk 1021 hPa
Sikt: 6000 m
lett snø

METAR: ESGJ 190420Z AUTO 14009KT 6000 -SN BKN009/// BKN012/// OVC021/// 00/M01 Q1021 RESHUP REUP

Tid: 05:36 (04:36 UTC)

Varsel

Denne rapporten ble laget for 5 timer og 6 minutter siden, klokken 23:30 UTC
Varsel gyldig fra 19. klokken 00 UTC til 19. klokken 02 UTC
Vind 8 kt fra Sør-sørøst
Sikt: 6000 m
Spredte skyer i en høyde av 600 ft
Brutte skyer i en høyde av 2000 ft
Sannsynlighet 40%
fra 19. klokken 00 UTC til 19. klokken 02 UTC
Sikt: 4000 m
Brutte skyer i en høyde av 600 ft
(lett) kornsnø, dis

TAF: ESGJ 182330Z 1900/1902 15008KT 6000 SCT006 BKN020 PROB40 1900/1902 4000 -SG BR BKN006

Værobservasjoner og værvarsel for over 4000 flyplasser (METAR- og TAF-rapporter).

Tilgjengelige stasjoner er representert av de røde og gule prikkene på kartet.

Hold musepekeren over prikken for å se navnet på stasjonen.

Klikk så for å se værobservasjoner og -varsler.

For å forandre kartet kan du klikke på den grønne knappen med svart kryss for å zoome inn, på den grønne knappen med strek for å zoome ut, eller på de grønne pilene for å se tilstøtende kart.


METAR-TAF: